Time;durP1;ratioP1;P1;durP2;ratioP2;P2;SDS_P1;SDS_P2;PMS_P1;PMS_P2;Temp;Humidity;BMP_temperature;BMP_pressure;BME280_temperature;BME280_humidity;BME280_pressure;Samples;Min_cycle;Max_cycle;Signal;HPM_P1;HPM_P2
2022/05/29 00:03:19;;;;;;;4.8;9.7;;;;;;;-133;83.8;65230;;;;
2022/05/29 00:14:20;;;;;;;3.8;7.1;;;;;;;-133;84.7;65230;;;;
2022/05/29 00:24:19;;;;;;;3.8;7.1;;;;;;;-133;86.6;65230;;;;
2022/05/29 00:34:19;;;;;;;3.8;7.1;;;;;;;-133;88.3;65240;;;;
2022/05/29 00:44:19;;;;;;;5.4;8.6;;;;;;;-133;92.4;65230;;;;
2022/05/29 00:54:19;;;;;;;5.4;8.6;;;;;;;-133;92.5;65240;;;;
2022/05/29 01:05:19;;;;;;;5.4;8.6;;;;;;;-133;92.9;65230;;;;
2022/05/29 01:15:19;;;;;;;4.8;9.2;;;;;;;-133;92.2;65230;;;;
2022/05/29 01:25:19;;;;;;;4.8;9.2;;;;;;;-133;94;65240;;;;
2022/05/29 01:35:19;;;;;;;4.8;9.2;;;;;;;-133;95;65230;;;;
2022/05/29 01:45:19;;;;;;;5.1;8.3;;;;;;;-133;95.2;65230;;;;
2022/05/29 01:56:19;;;;;;;5.1;8.3;;;;;;;-133;95.3;65230;;;;
2022/05/29 02:07:50;;;;;;;5.1;8.3;;;;;;;-133;94.4;65230;;;;
2022/05/29 02:17:19;;;;;;;6.5;10.6;;;;;;;-133;94.5;65230;;;;
2022/05/29 02:28:19;;;;;;;6.5;10.6;;;;;;;-133;94.2;65230;;;;
2022/05/29 02:38:19;;;;;;;6.5;10.6;;;;;;;-133;93.9;65230;;;;
2022/05/29 02:49:19;;;;;;;6;9.3;;;;;;;-133;92.8;65230;;;;
2022/05/29 03:00:19;;;;;;;6;9.3;;;;;;;-133;92.1;65230;;;;
2022/05/29 03:10:19;;;;;;;5.7;9.1;;;;;;;-133;92.1;65230;;;;
2022/05/29 03:20:19;;;;;;;5.7;9.1;;;;;;;-133;91.6;65230;;;;
2022/05/29 03:31:19;;;;;;;5.7;9.1;;;;;;;-133;90;65230;;;;
2022/05/29 03:41:19;;;;;;;4.9;7.5;;;;;;;-133;88.8;65220;;;;
2022/05/29 03:51:19;;;;;;;4.9;7.5;;;;;;;-133;88.4;65220;;;;
2022/05/29 04:01:19;;;;;;;4.9;7.5;;;;;;;-133;88.2;65220;;;;
2022/05/29 04:12:19;;;;;;;3.6;7.3;;;;;;;-133;87.6;65220;;;;
2022/05/29 04:22:19;;;;;;;3.6;7.3;;;;;;;-133;88.2;65220;;;;
2022/05/29 04:33:23;;;;;;;3.6;7.3;;;;;;;-133;87.1;65220;;;;
2022/05/29 04:43:19;;;;;;;3.7;6.8;;;;;;;-133;84.9;65220;;;;
2022/05/29 04:54:19;;;;;;;3.7;6.8;;;;;;;-133;83.3;65210;;;;
2022/05/29 05:05:19;;;;;;;3.7;6.8;;;;;;;-133;81.1;65210;;;;
2022/05/29 05:15:19;;;;;;;2.6;5.6;;;;;;;-133;79.4;65210;;;;
2022/05/29 05:25:19;;;;;;;2.6;5.6;;;;;;;-133;78.6;65210;;;;
2022/05/29 05:35:19;;;;;;;2.6;5.6;;;;;;;-133;78.6;65220;;;;
2022/05/29 05:46:19;;;;;;;3;6.7;;;;;;;-133;75.6;65210;;;;
2022/05/29 05:56:19;;;;;;;3;6.7;;;;;;;-133;73.7;65210;;;;
2022/05/29 06:06:19;;;;;;;3;6.7;;;;;;;-133;71.7;65210;;;;
2022/05/29 06:16:19;;;;;;;3.4;8;;;;;;;-133;71.3;65210;;;;
2022/05/29 06:26:19;;;;;;;3.4;8;;;;;;;-133;69;65210;;;;
2022/05/29 06:37:19;;;;;;;3.4;8;;;;;;;-133;67.3;65210;;;;
2022/05/29 06:48:19;;;;;;;3.1;6;;;;;;;-133;67.2;65210;;;;
2022/05/29 06:58:19;;;;;;;3.1;6;;;;;;;-133;66.2;65210;;;;
2022/05/29 07:08:19;;;;;;;3.1;6;;;;;;;-133;66.5;65210;;;;
2022/05/29 07:19:20;;;;;;;3.2;7.2;;;;;;;-133;66.4;65210;;;;
2022/05/29 07:29:19;;;;;;;3.2;7.2;;;;;;;-133;65.9;65210;;;;
2022/05/29 07:39:19;;;;;;;3.5;8.1;;;;;;;-133;63.5;65210;;;;
2022/05/29 07:50:19;;;;;;;3.5;8.1;;;;;;;-133;63.6;65210;;;;
2022/05/29 08:01:19;;;;;;;3.5;8.1;;;;;;;-133;61.3;65210;;;;
2022/05/29 08:12:19;;;;;;;2.8;6.1;;;;;;;-133;59.6;65210;;;;
2022/05/29 08:22:19;;;;;;;2.8;6.1;;;;;;;-133;60.3;65210;;;;
2022/05/29 08:33:20;;;;;;;2.8;6.1;;;;;;;-133;60;65210;;;;
2022/05/29 08:43:19;;;;;;;3;6.6;;;;;;;-133;58.6;65210;;;;
2022/05/29 08:53:19;;;;;;;3;6.6;;;;;;;-133;58.5;65220;;;;
2022/05/29 09:04:19;;;;;;;3;6.6;;;;;;;-133;57;65210;;;;
2022/05/29 09:15:19;;;;;;;3;7;;;;;;;-133;57.6;65210;;;;
2022/05/29 09:25:19;;;;;;;3;7;;;;;;;-133;58.7;65210;;;;
2022/05/29 09:36:19;;;;;;;3;7;;;;;;;-133;52.1;65210;;;;
2022/05/29 09:58:19;;;;;;;1.9;6.1;;;;;;;-133;47.6;65210;;;;
2022/05/29 10:09:19;;;;;;;2;4.8;;;;;;;-133;49.9;65210;;;;
2022/05/29 10:20:19;;;;;;;2;4.8;;;;;;;-133;47;65210;;;;
2022/05/29 10:31:19;;;;;;;2;4.8;;;;;;;-133;47;65210;;;;
2022/05/29 10:42:19;;;;;;;1.2;3.1;;;;;;;-133;45.5;65210;;;;
2022/05/29 10:53:20;;;;;;;1.2;3.1;;;;;;;-133;44.6;65210;;;;
2022/05/29 11:03:21;;;;;;;1.2;3.1;;;;;;;-133;39.7;65210;;;;
2022/05/29 11:13:20;;;;;;;1.1;3.4;;;;;;;-133;37.4;65210;;;;
2022/05/29 11:24:19;;;;;;;1.1;3.4;;;;;;;-133;38.4;65210;;;;
2022/05/29 11:34:19;;;;;;;1.1;3.4;;;;;;;-133;36.1;65210;;;;
2022/05/29 11:45:19;;;;;;;0.9;2.5;;;;;;;-133;36.4;65210;;;;
2022/05/29 11:56:19;;;;;;;0.9;2.5;;;;;;;-133;35.1;65210;;;;
2022/05/29 12:06:19;;;;;;;0.9;2.5;;;;;;;-133;38.1;65210;;;;
2022/05/29 12:17:19;;;;;;;1.1;3;;;;;;;-133;34.8;65210;;;;
2022/05/29 12:27:19;;;;;;;1.1;3;;;;;;;-133;36.5;65210;;;;
2022/05/29 12:38:19;;;;;;;1.1;3;;;;;;;-133;32.3;65210;;;;
2022/05/29 12:49:19;;;;;;;1.4;3.4;;;;;;;-133;35;65210;;;;
2022/05/29 12:59:19;;;;;;;1.4;3.4;;;;;;;-133;34.7;65210;;;;
2022/05/29 13:10:20;;;;;;;1;2.3;;;;;;;-133;35.1;65210;;;;
2022/05/29 13:20:20;;;;;;;1;2.3;;;;;;;-133;36.4;65210;;;;
2022/05/29 13:31:19;;;;;;;1;2.3;;;;;;;-133;34.1;65210;;;;
2022/05/29 13:42:20;;;;;;;0.9;3.3;;;;;;;-133;38.1;65210;;;;
2022/05/29 13:53:19;;;;;;;0.9;3.3;;;;;;;-133;38.8;65210;;;;
2022/05/29 14:04:19;;;;;;;0.9;3.3;;;;;;;-133;37.3;65220;;;;
2022/05/29 14:14:19;;;;;;;1.1;3.1;;;;;;;-133;38.9;65210;;;;
2022/05/29 14:25:19;;;;;;;1.1;3.1;;;;;;;-133;37.5;65210;;;;
2022/05/29 14:35:19;;;;;;;1.1;3.1;;;;;;;-133;38.3;65210;;;;
2022/05/29 14:46:19;;;;;;;1.8;3.7;;;;;;;-133;41.3;65210;;;;
2022/05/29 14:57:21;;;;;;;1.8;3.7;;;;;;;-133;43.6;65210;;;;
2022/05/29 15:18:19;;;;;;;1.8;4.3;;;;;;;-133;45.1;65220;;;;
2022/05/29 15:29:19;;;;;;;1.8;4.3;;;;;;;-133;46.5;65220;;;;
2022/05/29 15:39:19;;;;;;;1.8;3.7;;;;;;;-133;47;65220;;;;
2022/05/29 15:49:19;;;;;;;1.8;3.7;;;;;;;-133;47.9;65220;;;;
2022/05/29 16:00:19;;;;;;;1.8;3.7;;;;;;;-133;49.5;65230;;;;
2022/05/29 16:11:19;;;;;;;3.6;8.1;;;;;;;-133;50.2;65230;;;;
2022/05/29 16:21:20;;;;;;;3.6;8.1;;;;;;;-133;50.3;65220;;;;
2022/05/29 16:32:19;;;;;;;3.6;8.1;;;;;;;-133;51.7;65230;;;;
2022/05/29 16:52:19;;;;;;;2.8;5.8;;;;;;;-133;52.3;65230;;;;
2022/05/29 17:02:20;;;;;;;2.8;5.8;;;;;;;-133;52;65230;;;;
2022/05/29 17:13:19;;;;;;;2.7;6.3;;;;;;;-133;53.5;65230;;;;
2022/05/29 17:23:19;;;;;;;2.7;6.3;;;;;;;-133;53.3;65230;;;;
2022/05/29 17:34:19;;;;;;;2.7;6.3;;;;;;;-133;52.2;65230;;;;
2022/05/29 17:45:19;;;;;;;1.7;4.5;;;;;;;-133;55;65230;;;;
2022/05/29 17:55:19;;;;;;;1.7;4.5;;;;;;;-133;55.3;65230;;;;
2022/05/29 18:06:19;;;;;;;1.7;4.5;;;;;;;-133;57.8;65230;;;;
2022/05/29 18:16:19;;;;;;;1.8;4.2;;;;;;;-133;58.7;65230;;;;
2022/05/29 18:27:19;;;;;;;1.8;4.2;;;;;;;-133;59.7;65230;;;;
2022/05/29 18:37:19;;;;;;;1.8;4.2;;;;;;;-133;60.6;65230;;;;
2022/05/29 18:47:19;;;;;;;3;5.7;;;;;;;-133;61.1;65230;;;;
2022/05/29 18:57:19;;;;;;;3;5.7;;;;;;;-133;63.1;65230;;;;
2022/05/29 19:08:19;;;;;;;3;5.7;;;;;;;-133;64.2;65240;;;;
2022/05/29 19:18:19;;;;;;;3;6.1;;;;;;;-133;64.4;65230;;;;
2022/05/29 19:29:19;;;;;;;3;6.1;;;;;;;-133;65.7;65240;;;;
2022/05/29 19:39:19;;;;;;;7.6;13.8;;;;;;;-133;66;65230;;;;
2022/05/29 19:50:19;;;;;;;7.6;13.8;;;;;;;-133;66.2;65240;;;;
2022/05/29 20:01:19;;;;;;;7.6;13.8;;;;;;;-133;66.1;65240;;;;
2022/05/29 20:12:19;;;;;;;2.7;8.8;;;;;;;-133;66.3;65230;;;;
2022/05/29 20:23:19;;;;;;;2.7;8.8;;;;;;;-133;67.6;65230;;;;
2022/05/29 20:33:19;;;;;;;2.7;8.8;;;;;;;-133;68.2;65230;;;;
2022/05/29 20:44:19;;;;;;;2.5;5.9;;;;;;;-133;68.4;65230;;;;
2022/05/29 20:55:20;;;;;;;2.5;5.9;;;;;;;-133;69.2;65240;;;;
2022/05/29 21:05:19;;;;;;;2.5;5.9;;;;;;;-133;69.5;65230;;;;
2022/05/29 21:16:21;;;;;;;2.8;4.8;;;;;;;-133;70.1;65230;;;;
2022/05/29 21:26:19;;;;;;;2.8;4.8;;;;;;;-133;72.3;65240;;;;
2022/05/29 21:38:23;;;;;;;2.8;4.8;;;;;;;-133;74.3;65230;;;;
2022/05/29 21:47:21;;;;;;;3.7;6;;;;;;;-133;75.3;65230;;;;
2022/05/29 21:58:19;;;;;;;3.7;6;;;;;;;-133;77.6;65230;;;;
2022/05/29 22:08:19;;;;;;;3.7;6;;;;;;;-133;80.1;65230;;;;
2022/05/29 22:19:19;;;;;;;4.9;8.8;;;;;;;-133;83.1;65230;;;;
2022/05/29 22:29:23;;;;;;;4.9;8.8;;;;;;;-133;84.6;65230;;;;
2022/05/29 22:40:19;;;;;;;5.3;8.5;;;;;;;-133;85.1;65230;;;;
2022/05/29 22:50:19;;;;;;;5.3;8.5;;;;;;;-133;85.8;65230;;;;
2022/05/29 23:00:20;;;;;;;5.3;8.5;;;;;;;-133;87.6;65230;;;;
2022/05/29 23:11:19;;;;;;;5.3;10;;;;;;;-133;88.2;65230;;;;
2022/05/29 23:21:19;;;;;;;5.3;10;;;;;;;-133;89.2;65230;;;;
2022/05/29 23:32:19;;;;;;;5.3;10;;;;;;;-133;89.9;65240;;;;
2022/05/29 23:42:22;;;;;;;7.2;10.8;;;;;;;-133;90.9;65230;;;;
2022/05/29 23:52:19;;;;;;;7.2;10.8;;;;;;;-133;91.7;65230;;;;
